sensor_id;sensor_type;location;lat;lon;timestamp;pressure;altitude;pressure_sealevel;temperature;humidity
10718;BME280;13513;42.700;23.124;2022-12-18T00:01:47;93629.19;;;7.22;100.00
10718;BME280;13513;42.700;23.124;2022-12-18T00:04:25;93634.44;;;7.29;100.00
10718;BME280;13513;42.700;23.124;2022-12-18T00:06:55;93641.12;;;7.25;100.00
10718;BME280;13513;42.700;23.124;2022-12-18T00:09:27;93639.09;;;6.98;100.00
10718;BME280;13513;42.700;23.124;2022-12-18T00:11:58;93639.15;;;7.14;100.00
10718;BME280;13513;42.700;23.124;2022-12-18T00:14:29;93647.05;;;7.01;100.00
10718;BME280;13513;42.700;23.124;2022-12-18T00:16:59;93641.83;;;6.94;100.00
10718;BME280;13513;42.700;23.124;2022-12-18T00:19:30;93638.19;;;7.02;100.00
10718;BME280;13513;42.700;23.124;2022-12-18T00:22:01;93646.24;;;7.07;100.00
10718;BME280;13513;42.700;23.124;2022-12-18T00:24:32;93654.15;;;7.00;100.00
10718;BME280;13513;42.700;23.124;2022-12-18T00:27:03;93656.31;;;7.16;100.00
10718;BME280;13513;42.700;23.124;2022-12-18T00:29:34;93656.70;;;7.20;100.00
10718;BME280;13513;42.700;23.124;2022-12-18T00:32:05;93654.16;;;7.29;100.00
10718;BME280;13513;42.700;23.124;2022-12-18T00:34:36;93659.87;;;7.35;100.00
10718;BME280;13513;42.700;23.124;2022-12-18T00:37:06;93666.73;;;7.36;100.00
10718;BME280;13513;42.700;23.124;2022-12-18T00:39:37;93660.28;;;7.10;100.00
10718;BME280;13513;42.700;23.124;2022-12-18T00:42:10;93671.43;;;6.99;100.00
10718;BME280;13513;42.700;23.124;2022-12-18T00:44:57;93672.16;;;6.84;100.00
10718;BME280;13513;42.700;23.124;2022-12-18T00:47:27;93672.19;;;6.77;100.00
10718;BME280;13513;42.700;23.124;2022-12-18T00:49:58;93678.97;;;6.69;100.00
10718;BME280;13513;42.700;23.124;2022-12-18T00:52:29;93675.91;;;6.72;100.00
10718;BME280;13513;42.700;23.124;2022-12-18T00:55:00;93671.56;;;6.75;100.00
10718;BME280;13513;42.700;23.124;2022-12-18T00:57:31;93672.70;;;6.70;100.00
10718;BME280;13513;42.700;23.124;2022-12-18T01:00:03;93678.14;;;6.69;100.00
10718;BME280;13513;42.700;23.124;2022-12-18T01:02:33;93688.44;;;6.77;100.00
10718;BME280;13513;42.700;23.124;2022-12-18T01:05:03;93681.89;;;6.70;100.00
10718;BME280;13513;42.700;23.124;2022-12-18T01:07:33;93688.95;;;6.63;100.00
10718;BME280;13513;42.700;23.124;2022-12-18T01:10:06;93684.92;;;6.41;100.00
10718;BME280;13513;42.700;23.124;2022-12-18T01:12:37;93683.23;;;6.31;100.00
10718;BME280;13513;42.700;23.124;2022-12-18T01:15:09;93683.03;;;6.33;100.00
10718;BME280;13513;42.700;23.124;2022-12-18T01:17:40;93688.96;;;6.37;100.00
10718;BME280;13513;42.700;23.124;2022-12-18T01:20:13;93698.45;;;6.32;100.00
10718;BME280;13513;42.700;23.124;2022-12-18T01:22:43;93692.19;;;6.20;100.00
10718;BME280;13513;42.700;23.124;2022-12-18T01:25:14;93698.25;;;6.27;100.00
10718;BME280;13513;42.700;23.124;2022-12-18T01:27:44;93692.70;;;6.32;100.00
10718;BME280;13513;42.700;23.124;2022-12-18T01:30:15;93713.50;;;6.27;100.00
10718;BME280;13513;42.700;23.124;2022-12-18T01:32:45;93704.09;;;6.16;100.00
10718;BME280;13513;42.700;23.124;2022-12-18T01:35:14;93703.11;;;6.17;100.00
10718;BME280;13513;42.700;23.124;2022-12-18T01:37:45;93704.97;;;5.99;100.00
10718;BME280;13513;42.700;23.124;2022-12-18T01:40:16;93711.66;;;5.78;100.00
10718;BME280;13513;42.700;23.124;2022-12-18T01:42:51;93713.65;;;5.93;100.00
10718;BME280;13513;42.700;23.124;2022-12-18T01:45:26;93713.55;;;5.97;100.00
10718;BME280;13513;42.700;23.124;2022-12-18T01:48:00;93715.06;;;6.02;100.00
10718;BME280;13513;42.700;23.124;2022-12-18T01:50:41;93721.77;;;6.18;100.00
10718;BME280;13513;42.700;23.124;2022-12-18T01:53:14;93728.13;;;6.26;100.00
10718;BME280;13513;42.700;23.124;2022-12-18T01:55:46;93725.80;;;6.33;100.00
10718;BME280;13513;42.700;23.124;2022-12-18T01:58:19;93730.23;;;6.26;100.00
10718;BME280;13513;42.700;23.124;2022-12-18T02:00:50;93730.02;;;6.08;100.00
10718;BME280;13513;42.700;23.124;2022-12-18T02:03:21;93723.56;;;6.04;100.00
10718;BME280;13513;42.700;23.124;2022-12-18T02:06:06;93725.08;;;6.16;100.00
10718;BME280;13513;42.700;23.124;2022-12-18T02:08:40;93727.73;;;6.29;100.00
10718;BME280;13513;42.700;23.124;2022-12-18T02:16:56;93734.39;;;6.44;100.00
10718;BME280;13513;42.700;23.124;2022-12-18T02:19:43;93734.59;;;6.36;100.00
10718;BME280;13513;42.700;23.124;2022-12-18T02:27:56;93748.86;;;5.95;100.00
10718;BME280;13513;42.700;23.124;2022-12-18T02:30:29;93750.50;;;5.79;100.00
10718;BME280;13513;42.700;23.124;2022-12-18T02:33:00;93750.50;;;5.79;100.00
10718;BME280;13513;42.700;23.124;2022-12-18T02:35:32;93752.56;;;5.66;100.00
10718;BME280;13513;42.700;23.124;2022-12-18T02:38:05;93754.05;;;5.58;100.00
10718;BME280;13513;42.700;23.124;2022-12-18T02:40:37;93759.23;;;5.69;100.00
10718;BME280;13513;42.700;23.124;2022-12-18T02:43:14;93768.48;;;5.65;100.00
10718;BME280;13513;42.700;23.124;2022-12-18T02:45:50;93762.22;;;5.59;100.00
10718;BME280;13513;42.700;23.124;2022-12-18T02:48:29;93767.30;;;5.44;100.00
10718;BME280;13513;42.700;23.124;2022-12-18T02:56:38;93774.37;;;5.50;100.00
10718;BME280;13513;42.700;23.124;2022-12-18T02:59:18;93774.37;;;5.50;100.00
10718;BME280;13513;42.700;23.124;2022-12-18T03:01:52;93775.77;;;5.46;100.00
10718;BME280;13513;42.700;23.124;2022-12-18T03:04:26;93786.92;;;5.61;100.00
10718;BME280;13513;42.700;23.124;2022-12-18T03:06:59;93779.88;;;5.61;100.00
10718;BME280;13513;42.700;23.124;2022-12-18T03:09:37;93780.66;;;5.79;100.00
10718;BME280;13513;42.700;23.124;2022-12-18T03:12:15;93778.91;;;5.75;100.00
10718;BME280;13513;42.700;23.124;2022-12-18T03:17:31;93784.28;;;5.54;100.00
10718;BME280;13513;42.700;23.124;2022-12-18T03:20:13;93788.40;;;5.53;100.00
10718;BME280;13513;42.700;23.124;2022-12-18T03:22:43;93793.34;;;5.52;100.00
10718;BME280;13513;42.700;23.124;2022-12-18T03:25:14;93797.60;;;5.59;100.00
10718;BME280;13513;42.700;23.124;2022-12-18T03:27:50;93802.19;;;5.68;100.00
10718;BME280;13513;42.700;23.124;2022-12-18T03:30:21;93803.66;;;5.60;100.00
10718;BME280;13513;42.700;23.124;2022-12-18T03:33:08;93799.97;;;5.48;100.00
10718;BME280;13513;42.700;23.124;2022-12-18T03:35:42;93810.67;;;5.36;100.00
10718;BME280;13513;42.700;23.124;2022-12-18T03:38:13;93816.81;;;5.05;100.00
10718;BME280;13513;42.700;23.124;2022-12-18T03:41:11;93821.67;;;5.08;100.00
10718;BME280;13513;42.700;23.124;2022-12-18T03:43:49;93817.19;;;5.12;100.00
10718;BME280;13513;42.700;23.124;2022-12-18T03:50:01;93826.20;;;5.03;100.00
10718;BME280;13513;42.700;23.124;2022-12-18T03:52:13;93839.33;;;4.99;100.00
10718;BME280;13513;42.700;23.124;2022-12-18T03:54:42;93833.23;;;5.03;100.00
10718;BME280;13513;42.700;23.124;2022-12-18T03:57:21;93833.86;;;4.94;100.00
10718;BME280;13513;42.700;23.124;2022-12-18T03:59:58;93837.61;;;4.96;100.00
10718;BME280;13513;42.700;23.124;2022-12-18T04:02:25;93843.08;;;5.01;100.00
10718;BME280;13513;42.700;23.124;2022-12-18T04:04:56;93841.16;;;4.99;100.00
10718;BME280;13513;42.700;23.124;2022-12-18T04:07:28;93842.96;;;4.98;100.00
10718;BME280;13513;42.700;23.124;2022-12-18T04:10:00;93842.03;;;5.06;100.00
10718;BME280;13513;42.700;23.124;2022-12-18T04:12:31;93838.00;;;4.82;100.00
10718;BME280;13513;42.700;23.124;2022-12-18T04:15:02;93839.20;;;4.80;100.00
10718;BME280;13513;42.700;23.124;2022-12-18T04:17:34;93838.64;;;4.84;100.00
10718;BME280;13513;42.700;23.124;2022-12-18T04:20:08;93839.73;;;4.86;100.00
10718;BME280;13513;42.700;23.124;2022-12-18T04:22:39;93845.62;;;4.77;100.00
10718;BME280;13513;42.700;23.124;2022-12-18T04:25:10;93851.65;;;4.78;100.00
10718;BME280;13513;42.700;23.124;2022-12-18T04:27:41;93858.33;;;4.70;100.00
10718;BME280;13513;42.700;23.124;2022-12-18T04:30:13;93860.53;;;4.56;100.00
10718;BME280;13513;42.700;23.124;2022-12-18T04:32:44;93862.27;;;4.49;100.00
10718;BME280;13513;42.700;23.124;2022-12-18T04:35:14;93867.13;;;4.52;100.00
10718;BME280;13513;42.700;23.124;2022-12-18T04:37:45;93873.91;;;4.57;100.00
10718;BME280;13513;42.700;23.124;2022-12-18T04:40:15;93872.84;;;4.62;100.00
10718;BME280;13513;42.700;23.124;2022-12-18T04:42:50;93875.41;;;4.55;100.00
10718;BME280;13513;42.700;23.124;2022-12-18T04:45:19;93880.28;;;4.48;100.00
10718;BME280;13513;42.700;23.124;2022-12-18T04:47:50;93884.81;;;4.39;100.00
10718;BME280;13513;42.700;23.124;2022-12-18T04:50:20;93891.34;;;4.39;100.00
10718;BME280;13513;42.700;23.124;2022-12-18T04:52:51;93895.80;;;4.49;100.00
10718;BME280;13513;42.700;23.124;2022-12-18T04:55:21;93903.77;;;4.62;100.00
10718;BME280;13513;42.700;23.124;2022-12-18T04:57:52;93897.03;;;4.74;100.00
10718;BME280;13513;42.700;23.124;2022-12-18T05:00:23;93897.03;;;4.74;100.00
10718;BME280;13513;42.700;23.124;2022-12-18T05:02:54;93902.91;;;4.76;100.00
10718;BME280;13513;42.700;23.124;2022-12-18T05:05:25;93909.13;;;4.65;100.00
10718;BME280;13513;42.700;23.124;2022-12-18T05:07:56;93911.80;;;4.50;100.00
10718;BME280;13513;42.700;23.124;2022-12-18T05:10:27;93921.91;;;4.53;100.00
10718;BME280;13513;42.700;23.124;2022-12-18T05:12:57;93926.31;;;4.53;100.00
10718;BME280;13513;42.700;23.124;2022-12-18T05:15:32;93924.29;;;4.33;100.00
10718;BME280;13513;42.700;23.124;2022-12-18T05:18:03;93929.61;;;4.15;100.00
10718;BME280;13513;42.700;23.124;2022-12-18T05:20:34;93926.94;;;4.04;100.00
10718;BME280;13513;42.700;23.124;2022-12-18T05:23:04;93929.25;;;4.03;100.00
10718;BME280;13513;42.700;23.124;2022-12-18T05:25:34;93933.14;;;3.93;100.00
10718;BME280;13513;42.700;23.124;2022-12-18T05:28:04;93938.02;;;3.96;100.00
10718;BME280;13513;42.700;23.124;2022-12-18T05:30:34;93942.12;;;3.94;100.00
10718;BME280;13513;42.700;23.124;2022-12-18T05:33:04;93950.04;;;4.01;100.00
10718;BME280;13513;42.700;23.124;2022-12-18T05:35:35;93951.89;;;4.11;100.00
10718;BME280;13513;42.700;23.124;2022-12-18T05:38:06;93951.89;;;4.11;100.00
10718;BME280;13513;42.700;23.124;2022-12-18T05:40:37;93963.69;;;3.92;100.00
10718;BME280;13513;42.700;23.124;2022-12-18T05:43:09;93969.79;;;3.89;100.00
10718;BME280;13513;42.700;23.124;2022-12-18T05:45:40;93964.43;;;3.86;100.00
10718;BME280;13513;42.700;23.124;2022-12-18T05:48:14;93977.08;;;3.79;100.00
10718;BME280;13513;42.700;23.124;2022-12-18T05:50:46;93970.27;;;3.88;100.00
10718;BME280;13513;42.700;23.124;2022-12-18T05:53:19;93980.51;;;3.79;100.00
10718;BME280;13513;42.700;23.124;2022-12-18T05:55:51;93986.91;;;3.77;100.00
10718;BME280;13513;42.700;23.124;2022-12-18T05:58:21;93986.83;;;3.70;100.00
10718;BME280;13513;42.700;23.124;2022-12-18T06:00:52;93992.57;;;3.66;100.00
10718;BME280;13513;42.700;23.124;2022-12-18T06:03:23;93995.53;;;3.63;100.00
10718;BME280;13513;42.700;23.124;2022-12-18T06:05:54;94000.33;;;3.88;100.00
10718;BME280;13513;42.700;23.124;2022-12-18T06:08:24;93999.23;;;4.01;100.00
10718;BME280;13513;42.700;23.124;2022-12-18T06:10:55;94001.64;;;3.88;100.00
10718;BME280;13513;42.700;23.124;2022-12-18T06:13:26;94006.20;;;3.90;100.00
10718;BME280;13513;42.700;23.124;2022-12-18T06:15:57;94010.57;;;3.94;100.00
10718;BME280;13513;42.700;23.124;2022-12-18T06:18:28;94002.46;;;3.89;100.00
10718;BME280;13513;42.700;23.124;2022-12-18T06:20:59;94016.45;;;3.77;100.00
10718;BME280;13513;42.700;23.124;2022-12-18T06:23:31;94020.28;;;3.71;100.00
10718;BME280;13513;42.700;23.124;2022-12-18T06:26:10;94018.18;;;3.70;100.00
10718;BME280;13513;42.700;23.124;2022-12-18T06:28:43;94016.70;;;3.72;100.00
10718;BME280;13513;42.700;23.124;2022-12-18T06:31:14;94010.00;;;3.69;100.00
10718;BME280;13513;42.700;23.124;2022-12-18T06:33:44;94014.66;;;3.78;100.00
10718;BME280;13513;42.700;23.124;2022-12-18T06:36:15;94018.67;;;3.84;100.00
10718;BME280;13513;42.700;23.124;2022-12-18T06:38:46;94018.97;;;3.71;100.00
10718;BME280;13513;42.700;23.124;2022-12-18T06:41:19;94022.62;;;3.66;100.00
10718;BME280;13513;42.700;23.124;2022-12-18T06:43:50;94024.02;;;3.72;100.00
10718;BME280;13513;42.700;23.124;2022-12-18T06:46:21;94029.94;;;3.70;100.00
10718;BME280;13513;42.700;23.124;2022-12-18T06:48:51;94040.03;;;3.55;100.00
10718;BME280;13513;42.700;23.124;2022-12-18T06:51:23;94044.16;;;3.49;100.00
10718;BME280;13513;42.700;23.124;2022-12-18T06:53:54;94051.37;;;3.66;100.00
10718;BME280;13513;42.700;23.124;2022-12-18T06:56:27;94045.03;;;3.79;100.00
10718;BME280;13513;42.700;23.124;2022-12-18T06:59:00;94040.54;;;3.87;100.00
10718;BME280;13513;42.700;23.124;2022-12-18T07:01:30;94043.03;;;3.99;100.00
10718;BME280;13513;42.700;23.124;2022-12-18T07:04:00;94047.42;;;4.03;100.00
10718;BME280;13513;42.700;23.124;2022-12-18T07:06:31;94043.94;;;4.21;100.00
10718;BME280;13513;42.700;23.124;2022-12-18T07:09:01;94039.16;;;4.39;100.00
10718;BME280;13513;42.700;23.124;2022-12-18T07:11:32;94043.53;;;4.57;100.00
10718;BME280;13513;42.700;23.124;2022-12-18T07:14:03;94053.89;;;4.65;100.00
10718;BME280;13513;42.700;23.124;2022-12-18T07:16:32;94057.55;;;4.85;100.00
10718;BME280;13513;42.700;23.124;2022-12-18T07:19:03;94055.65;;;4.94;100.00
10718;BME280;13513;42.700;23.124;2022-12-18T07:21:33;94055.65;;;4.94;100.00
10718;BME280;13513;42.700;23.124;2022-12-18T07:24:05;94061.62;;;4.98;100.00
10718;BME280;13513;42.700;23.124;2022-12-18T07:26:36;94061.62;;;4.98;100.00
10718;BME280;13513;42.700;23.124;2022-12-18T07:29:07;94065.00;;;5.03;100.00
10718;BME280;13513;42.700;23.124;2022-12-18T07:31:38;94060.59;;;5.14;100.00
10718;BME280;13513;42.700;23.124;2022-12-18T07:34:12;94060.14;;;5.10;100.00
10718;BME280;13513;42.700;23.124;2022-12-18T07:36:42;94070.20;;;5.17;100.00
10718;BME280;13513;42.700;23.124;2022-12-18T07:39:13;94070.20;;;5.17;100.00
10718;BME280;13513;42.700;23.124;2022-12-18T07:41:43;94075.24;;;5.08;100.00
10718;BME280;13513;42.700;23.124;2022-12-18T07:44:13;94070.80;;;5.09;100.00
10718;BME280;13513;42.700;23.124;2022-12-18T07:46:44;94078.87;;;5.07;100.00
10718;BME280;13513;42.700;23.124;2022-12-18T07:49:15;94078.16;;;4.99;100.00
10718;BME280;13513;42.700;23.124;2022-12-18T07:51:46;94076.49;;;4.87;100.00
10718;BME280;13513;42.700;23.124;2022-12-18T07:54:16;94080.68;;;4.67;100.00
10718;BME280;13513;42.700;23.124;2022-12-18T07:56:46;94079.25;;;4.65;100.00
10718;BME280;13513;42.700;23.124;2022-12-18T07:59:17;94093.52;;;4.62;100.00
10718;BME280;13513;42.700;23.124;2022-12-18T08:01:48;94107.17;;;4.54;100.00
10718;BME280;13513;42.700;23.124;2022-12-18T08:04:19;94107.17;;;4.54;100.00
10718;BME280;13513;42.700;23.124;2022-12-18T08:06:50;94107.69;;;4.53;100.00
10718;BME280;13513;42.700;23.124;2022-12-18T08:09:20;94113.16;;;4.48;100.00
10718;BME280;13513;42.700;23.124;2022-12-18T08:11:50;94113.98;;;4.59;100.00
10718;BME280;13513;42.700;23.124;2022-12-18T08:14:21;94113.98;;;4.59;100.00
10718;BME280;13513;42.700;23.124;2022-12-18T08:16:52;94110.44;;;4.56;100.00
10718;BME280;13513;42.700;23.124;2022-12-18T08:19:24;94111.38;;;4.73;100.00
10718;BME280;13513;42.700;23.124;2022-12-18T08:21:55;94117.31;;;4.82;100.00
10718;BME280;13513;42.700;23.124;2022-12-18T08:24:27;94112.33;;;5.01;100.00
10718;BME280;13513;42.700;23.124;2022-12-18T08:26:59;94118.59;;;5.46;100.00
10718;BME280;13513;42.700;23.124;2022-12-18T08:29:29;94118.59;;;5.46;100.00
10718;BME280;13513;42.700;23.124;2022-12-18T08:32:00;94121.02;;;5.58;100.00
10718;BME280;13513;42.700;23.124;2022-12-18T08:34:31;94121.33;;;5.59;100.00
10718;BME280;13513;42.700;23.124;2022-12-18T08:37:01;94125.93;;;5.47;100.00
10718;BME280;13513;42.700;23.124;2022-12-18T08:39:32;94126.91;;;5.71;100.00
10718;BME280;13513;42.700;23.124;2022-12-18T08:42:03;94138.30;;;5.88;100.00
10718;BME280;13513;42.700;23.124;2022-12-18T08:44:50;94132.21;;;5.98;100.00
10718;BME280;13513;42.700;23.124;2022-12-18T08:47:21;94132.21;;;5.98;100.00
10718;BME280;13513;42.700;23.124;2022-12-18T08:49:52;94141.52;;;6.01;100.00
10718;BME280;13513;42.700;23.124;2022-12-18T08:52:23;94138.91;;;6.11;100.00
10718;BME280;13513;42.700;23.124;2022-12-18T08:54:54;94136.28;;;5.90;100.00
10718;BME280;13513;42.700;23.124;2022-12-18T08:57:26;94138.89;;;6.01;100.00
10718;BME280;13513;42.700;23.124;2022-12-18T08:59:57;94140.40;;;6.10;100.00
10718;BME280;13513;42.700;23.124;2022-12-18T09:02:28;94136.06;;;6.23;100.00
10718;BME280;13513;42.700;23.124;2022-12-18T09:04:58;94137.42;;;6.30;100.00
10718;BME280;13513;42.700;23.124;2022-12-18T09:07:29;94138.03;;;6.32;99.22
10718;BME280;13513;42.700;23.124;2022-12-18T09:10:00;94143.69;;;6.29;98.59
10718;BME280;13513;42.700;23.124;2022-12-18T09:12:30;94140.80;;;6.24;98.24
10718;BME280;13513;42.700;23.124;2022-12-18T09:15:01;94141.12;;;6.14;98.40
10718;BME280;13513;42.700;23.124;2022-12-18T09:17:32;94141.57;;;6.18;97.27
10718;BME280;13513;42.700;23.124;2022-12-18T09:20:02;94146.89;;;6.14;95.86
10718;BME280;13513;42.700;23.124;2022-12-18T09:22:33;94143.50;;;6.30;96.51
10718;BME280;13513;42.700;23.124;2022-12-18T09:25:09;94136.57;;;6.40;95.27
10718;BME280;13513;42.700;23.124;2022-12-18T09:27:43;94136.12;;;6.47;94.73
10718;BME280;13513;42.700;23.124;2022-12-18T09:30:15;94140.47;;;6.33;94.31
10718;BME280;13513;42.700;23.124;2022-12-18T09:32:45;94130.45;;;6.43;93.55
10718;BME280;13513;42.700;23.124;2022-12-18T09:35:16;94134.28;;;6.41;93.28
10718;BME280;13513;42.700;23.124;2022-12-18T09:37:47;94138.67;;;6.51;93.33
10718;BME280;13513;42.700;23.124;2022-12-18T09:40:21;94137.83;;;6.78;92.31
10718;BME280;13513;42.700;23.124;2022-12-18T09:43:00;94140.30;;;6.86;92.41
10718;BME280;13513;42.700;23.124;2022-12-18T09:45:35;94144.09;;;6.77;91.63
10718;BME280;13513;42.700;23.124;2022-12-18T09:48:03;94142.45;;;6.42;91.89
10718;BME280;13513;42.700;23.124;2022-12-18T09:50:35;94138.97;;;6.62;91.85
10718;BME280;13513;42.700;23.124;2022-12-18T09:53:11;94142.53;;;6.55;90.48
10718;BME280;13513;42.700;23.124;2022-12-18T09:55:41;94145.27;;;6.40;90.49
10718;BME280;13513;42.700;23.124;2022-12-18T09:58:36;94145.53;;;6.35;91.17
10718;BME280;13513;42.700;23.124;2022-12-18T10:01:09;94138.85;;;6.32;91.13
10718;BME280;13513;42.700;23.124;2022-12-18T10:03:35;94132.78;;;6.32;91.63
10718;BME280;13513;42.700;23.124;2022-12-18T10:06:14;94138.97;;;6.35;91.54
10718;BME280;13513;42.700;23.124;2022-12-18T10:15:04;94129.81;;;6.69;91.14
10718;BME280;13513;42.700;23.124;2022-12-18T10:17:44;94139.73;;;6.90;89.45
10718;BME280;13513;42.700;23.124;2022-12-18T10:20:27;94136.06;;;6.85;90.06
10718;BME280;13513;42.700;23.124;2022-12-18T10:26:02;94146.38;;;7.27;85.33
10718;BME280;13513;42.700;23.124;2022-12-18T10:28:35;94144.70;;;7.36;84.80
10718;BME280;13513;42.700;23.124;2022-12-18T10:31:12;94141.83;;;7.25;84.13
10718;BME280;13513;42.700;23.124;2022-12-18T10:33:39;94144.31;;;7.39;80.34
10718;BME280;13513;42.700;23.124;2022-12-18T10:36:10;94148.52;;;7.57;80.45
10718;BME280;13513;42.700;23.124;2022-12-18T10:38:41;94142.35;;;7.61;78.75
10718;BME280;13513;42.700;23.124;2022-12-18T10:41:25;94148.00;;;7.58;81.00
10718;BME280;13513;42.700;23.124;2022-12-18T10:44:18;94145.95;;;7.53;81.32
10718;BME280;13513;42.700;23.124;2022-12-18T10:47:02;94146.79;;;7.60;79.51
10718;BME280;13513;42.700;23.124;2022-12-18T10:49:26;94139.54;;;7.69;78.61
10718;BME280;13513;42.700;23.124;2022-12-18T10:52:23;94142.52;;;7.89;79.02
10718;BME280;13513;42.700;23.124;2022-12-18T10:55:03;94137.06;;;7.97;78.40
10718;BME280;13513;42.700;23.124;2022-12-18T10:57:36;94149.50;;;7.99;77.95
10718;BME280;13513;42.700;23.124;2022-12-18T11:00:29;94146.47;;;8.02;74.99
10718;BME280;13513;42.700;23.124;2022-12-18T11:03:01;94141.73;;;8.15;73.01
10718;BME280;13513;42.700;23.124;2022-12-18T11:05:33;94150.91;;;7.95;74.83
10718;BME280;13513;42.700;23.124;2022-12-18T11:08:04;94146.38;;;7.93;75.12
10718;BME280;13513;42.700;23.124;2022-12-18T11:10:36;94152.84;;;7.91;75.54
10718;BME280;13513;42.700;23.124;2022-12-18T11:13:25;94144.21;;;7.73;73.88
10718;BME280;13513;42.700;23.124;2022-12-18T11:15:57;94144.91;;;7.71;73.77
10718;BME280;13513;42.700;23.124;2022-12-18T11:18:30;94148.73;;;7.62;70.73
10718;BME280;13513;42.700;23.124;2022-12-18T11:21:07;94145.63;;;7.39;72.64
10718;BME280;13513;42.700;23.124;2022-12-18T11:23:51;94149.77;;;7.44;73.20
10718;BME280;13513;42.700;23.124;2022-12-18T11:26:23;94153.34;;;7.47;72.68
10718;BME280;13513;42.700;23.124;2022-12-18T11:29:08;94158.03;;;7.58;71.74
10718;BME280;13513;42.700;23.124;2022-12-18T11:31:38;94157.19;;;7.51;70.89
10718;BME280;13513;42.700;23.124;2022-12-18T11:34:28;94156.06;;;7.50;69.20
10718;BME280;13513;42.700;23.124;2022-12-18T11:37:07;94155.61;;;7.63;68.10
10718;BME280;13513;42.700;23.124;2022-12-18T11:39:49;94152.75;;;7.28;71.94
10718;BME280;13513;42.700;23.124;2022-12-18T11:42:35;94157.14;;;7.15;69.43
10718;BME280;13513;42.700;23.124;2022-12-18T11:48:13;94161.73;;;7.06;70.48
10718;BME280;13513;42.700;23.124;2022-12-18T11:50:46;94159.13;;;6.89;74.54
10718;BME280;13513;42.700;23.124;2022-12-18T11:53:15;94164.24;;;6.80;70.48
10718;BME280;13513;42.700;23.124;2022-12-18T11:56:01;94161.59;;;6.63;74.00
10718;BME280;13513;42.700;23.124;2022-12-18T11:58:50;94159.00;;;6.70;70.38
10718;BME280;13513;42.700;23.124;2022-12-18T12:01:33;94150.89;;;6.48;70.40
10718;BME280;13513;42.700;23.124;2022-12-18T12:07:21;94146.31;;;6.73;74.01
10718;BME280;13513;42.700;23.124;2022-12-18T12:10:22;94145.80;;;6.74;74.03
10718;BME280;13513;42.700;23.124;2022-12-18T12:23:55;94150.71;;;7.00;71.73
10718;BME280;13513;42.700;23.124;2022-12-18T12:26:35;94151.03;;;7.08;72.72
10718;BME280;13513;42.700;23.124;2022-12-18T12:34:46;94156.63;;;7.39;69.57
10718;BME280;13513;42.700;23.124;2022-12-18T12:37:49;94148.66;;;7.43;70.99
10718;BME280;13513;42.700;23.124;2022-12-18T12:40:17;94144.78;;;7.32;69.99
10718;BME280;13513;42.700;23.124;2022-12-18T12:42:58;94141.47;;;7.34;73.44
10718;BME280;13513;42.700;23.124;2022-12-18T12:45:58;94144.11;;;7.41;72.16
10718;BME280;13513;42.700;23.124;2022-12-18T12:51:27;94151.39;;;7.45;71.76
10718;BME280;13513;42.700;23.124;2022-12-18T12:53:59;94153.91;;;7.43;74.65
10718;BME280;13513;42.700;23.124;2022-12-18T12:56:54;94157.30;;;7.30;71.04
10718;BME280;13513;42.700;23.124;2022-12-18T13:00:35;94154.98;;;7.25;72.15
10718;BME280;13513;42.700;23.124;2022-12-18T13:07:45;94168.14;;;7.14;75.84
10718;BME280;13513;42.700;23.124;2022-12-18T13:10:24;94157.69;;;7.21;76.70
10718;BME280;13513;42.700;23.124;2022-12-18T13:13:00;94169.23;;;7.09;74.36
10718;BME280;13513;42.700;23.124;2022-12-18T13:16:03;94175.59;;;7.04;75.35
10718;BME280;13513;42.700;23.124;2022-12-18T13:18:22;94178.57;;;6.95;76.04
10718;BME280;13513;42.700;23.124;2022-12-18T13:23:31;94182.66;;;6.87;77.94
10718;BME280;13513;42.700;23.124;2022-12-18T13:28:50;94185.12;;;7.12;76.47
10718;BME280;13513;42.700;23.124;2022-12-18T13:34:21;94182.84;;;7.02;77.19
10718;BME280;13513;42.700;23.124;2022-12-18T13:36:55;94187.09;;;7.20;75.55
10718;BME280;13513;42.700;23.124;2022-12-18T13:39:34;94185.94;;;7.36;75.65
10718;BME280;13513;42.700;23.124;2022-12-18T13:44:41;94191.69;;;7.29;75.67
10718;BME280;13513;42.700;23.124;2022-12-18T13:47:33;94197.22;;;7.23;76.36
10718;BME280;13513;42.700;23.124;2022-12-18T13:50:23;94201.00;;;7.14;77.97
10718;BME280;13513;42.700;23.124;2022-12-18T13:52:53;94211.14;;;7.00;77.94
10718;BME280;13513;42.700;23.124;2022-12-18T13:55:24;94214.56;;;7.01;78.08
10718;BME280;13513;42.700;23.124;2022-12-18T13:58:05;94212.84;;;6.97;77.46
10718;BME280;13513;42.700;23.124;2022-12-18T14:00:35;94214.64;;;6.97;76.45
10718;BME280;13513;42.700;23.124;2022-12-18T14:03:21;94208.94;;;6.87;77.01
10718;BME280;13513;42.700;23.124;2022-12-18T14:05:59;94213.36;;;6.69;76.81
10718;BME280;13513;42.700;23.124;2022-12-18T14:08:31;94219.57;;;6.51;76.38
10718;BME280;13513;42.700;23.124;2022-12-18T14:11:01;94211.92;;;6.29;80.20
10718;BME280;13513;42.700;23.124;2022-12-18T14:13:35;94214.92;;;6.15;80.27
10718;BME280;13513;42.700;23.124;2022-12-18T14:16:06;94213.10;;;6.05;81.30
10718;BME280;13513;42.700;23.124;2022-12-18T14:18:56;94216.86;;;5.96;81.87
10718;BME280;13513;42.700;23.124;2022-12-18T14:21:29;94223.02;;;5.89;79.48
10718;BME280;13513;42.700;23.124;2022-12-18T14:24:20;94222.28;;;5.84;80.95
10718;BME280;13513;42.700;23.124;2022-12-18T14:26:51;94219.44;;;5.86;82.89
10718;BME280;13513;42.700;23.124;2022-12-18T14:29:27;94229.20;;;5.81;82.19
10718;BME280;13513;42.700;23.124;2022-12-18T14:32:17;94231.57;;;5.72;82.94
10718;BME280;13513;42.700;23.124;2022-12-18T14:34:51;94233.10;;;5.56;82.01
10718;BME280;13513;42.700;23.124;2022-12-18T14:37:26;94231.52;;;5.41;79.65
10718;BME280;13513;42.700;23.124;2022-12-18T14:40:00;94232.64;;;5.28;81.56
10718;BME280;13513;42.700;23.124;2022-12-18T14:42:30;94228.24;;;5.14;83.20